Time;durP1;ratioP1;P1;durP2;ratioP2;P2;SDS_P1;SDS_P2;PMS_P1;PMS_P2;Temp;Humidity;BMP_temperature;BMP_pressure;BME280_temperature;BME280_humidity;BME280_pressure;Samples;Min_cycle;Max_cycle;Signal;HPM_P1;HPM_P2
2023/09/12 00:00:01;;;;;;;4.72;3.75;;;;;;;23.94;56.62;100666.19;681840;29;1191;-90
2023/09/12 00:00:23;;;;;;;5.10;3.90;;;;;;;23.94;56.56;100669.72;687709;28;1069;-87
2023/09/12 00:00:44;;;;;;;5.05;4.00;;;;;;;23.93;57.13;100659.09;686756;28;1116;-88
2023/09/12 00:01:05;;;;;;;5.80;4.13;;;;;;;24.00;56.73;100674.00;682197;29;1192;-87
2023/09/12 00:01:26;;;;;;;5.30;3.90;;;;;;;23.98;56.96;100667.84;682342;29;1135;-89
2023/09/12 00:01:47;;;;;;;4.90;3.57;;;;;;;23.96;56.83;100661.66;684674;28;1302;-88
2023/09/12 00:02:09;;;;;;;5.00;3.80;;;;;;;23.98;56.86;100665.19;681169;29;1317;-86
2023/09/12 00:02:30;;;;;;;5.32;3.83;;;;;;;23.97;56.94;100663.41;677009;29;1010;-88
2023/09/12 00:02:50;;;;;;;6.57;4.07;;;;;;;24.01;56.82;100662.41;681842;28;1267;-88
2023/09/12 00:03:11;;;;;;;6.20;4.00;;;;;;;23.95;56.66;100651.94;684657;28;1297;-87
2023/09/12 00:03:34;;;;;;;5.68;4.10;;;;;;;23.97;56.99;100650.09;682545;28;1387;-87
2023/09/12 00:03:54;;;;;;;4.80;3.72;;;;;;;24.01;56.81;100654.41;683065;29;803;-89
2023/09/12 00:04:15;;;;;;;4.00;3.47;;;;;;;23.94;56.64;100639.53;688104;28;1045;-89
2023/09/12 00:04:36;;;;;;;4.57;3.58;;;;;;;24.00;57.10;100650.00;685342;28;963;-85
2023/09/12 00:04:57;;;;;;;4.80;3.70;;;;;;;23.99;57.01;100647.38;680292;29;1171;-89
2023/09/12 00:05:17;;;;;;;6.05;3.75;;;;;;;23.98;56.91;100648.31;679836;29;1208;-88
2023/09/12 00:05:38;;;;;;;6.40;3.85;;;;;;;23.90;57.02;100637.91;682506;28;1241;-88
2023/09/12 00:06:01;;;;;;;6.55;3.80;;;;;;;23.92;56.94;100636.91;682903;28;1260;-87
2023/09/12 00:06:22;;;;;;;4.85;3.47;;;;;;;23.89;57.08;100637.00;680285;29;1071;-89
2023/09/12 00:06:43;;;;;;;4.80;3.30;;;;;;;23.88;57.03;100635.28;682364;29;1201;-89
2023/09/12 00:07:04;;;;;;;4.30;3.05;;;;;;;23.80;57.27;100632.81;681867;29;1267;-88
2023/09/12 00:07:24;;;;;;;4.50;3.45;;;;;;;23.89;57.28;100644.13;682853;29;1254;-87
2023/09/12 00:07:45;;;;;;;5.35;3.75;;;;;;;23.77;57.27;100632.91;682676;28;1065;-89
2023/09/12 00:08:06;;;;;;;6.55;4.00;;;;;;;23.82;57.06;100641.66;685240;28;1410;-89
2023/09/12 00:08:27;;;;;;;6.68;3.90;;;;;;;23.77;57.33;100638.25;679375;29;1182;-90
2023/09/12 00:08:48;;;;;;;6.00;3.90;;;;;;;23.74;57.42;100635.69;680078;29;1914;-90
2023/09/12 00:09:08;;;;;;;5.60;4.18;;;;;;;23.69;57.55;100640.22;682605;29;1169;-90
2023/09/12 00:09:29;;;;;;;5.28;3.90;;;;;;;23.75;57.42;100656.06;682585;28;1225;-89
2023/09/12 00:09:50;;;;;;;5.40;4.10;;;;;;;23.67;57.70;100647.41;680058;29;1150;-88
2023/09/12 00:10:11;;;;;;;5.13;3.92;;;;;;;23.64;57.84;100652.81;680073;29;1540;-89
2023/09/12 00:10:31;;;;;;;7.75;4.70;;;;;;;23.59;57.67;100649.41;685258;28;1154;-87
2023/09/12 00:11:01;;;;;;;7.40;4.20;;;;;;;23.56;57.88;100661.88;685512;28;1021;-88
2023/09/12 00:11:25;;;;;;;6.93;3.65;;;;;;;23.55;58.01;100657.47;682856;29;1188;-87
2023/09/12 00:11:46;;;;;;;4.70;3.10;;;;;;;23.50;58.09;100651.44;682679;29;1205;-88
2023/09/12 00:12:07;;;;;;;4.95;3.30;;;;;;;23.53;58.32;100667.31;682187;28;1245;-90
2023/09/12 00:12:28;;;;;;;4.38;3.20;;;;;;;23.51;58.18;100657.59;685352;28;1102;-89
2023/09/12 00:12:49;;;;;;;4.60;3.60;;;;;;;23.48;58.42;100658.56;688501;28;1215;-89
2023/09/12 00:13:10;;;;;;;4.78;3.80;;;;;;;23.45;58.27;100648.00;689302;28;1178;-88
2023/09/12 00:13:33;;;;;;;5.20;3.60;;;;;;;23.49;58.32;100657.63;685614;28;1303;-88
2023/09/12 00:13:54;;;;;;;5.28;3.40;;;;;;;23.44;58.68;100656.91;680273;29;1247;-89
2023/09/12 00:14:16;;;;;;;5.10;3.20;;;;;;;23.52;58.67;100660.25;690729;28;1318;-87
2023/09/12 00:14:37;;;;;;;5.00;3.53;;;;;;;23.46;58.72;100649.75;690715;28;1048;-89
2023/09/12 00:14:57;;;;;;;4.70;3.50;;;;;;;23.48;58.65;100660.38;685625;28;1213;-90
2023/09/12 00:15:19;;;;;;;4.63;3.70;;;;;;;23.42;58.51;100645.41;684972;28;1261;-89
2023/09/12 00:15:40;;;;;;;5.03;3.75;;;;;;;23.38;58.70;100638.44;690266;28;1196;-89
2023/09/12 00:16:01;;;;;;;5.17;4.00;;;;;;;23.39;58.53;100648.16;680318;29;1166;-88
2023/09/12 00:16:22;;;;;;;5.75;4.10;;;;;;;23.38;58.71;100651.75;683060;28;1073;-89
2023/09/12 00:16:42;;;;;;;5.82;4.03;;;;;;;23.42;58.91;100661.38;682417;29;1114;-89
2023/09/12 00:17:03;;;;;;;5.78;3.90;;;;;;;23.38;59.07;100657.09;686835;28;1189;-89
2023/09/12 00:17:24;;;;;;;5.30;3.70;;;;;;;23.36;58.95;100651.78;688095;28;1434;-88
2023/09/12 00:17:44;;;;;;;6.03;3.83;;;;;;;23.37;58.97;100653.53;690406;28;1130;-88
2023/09/12 00:18:05;;;;;;;6.68;4.00;;;;;;;23.30;58.92;100643.09;686000;28;1286;-89
2023/09/12 00:18:26;;;;;;;6.13;4.03;;;;;;;23.30;58.93;100649.28;688038;28;1358;-87
2023/09/12 00:18:47;;;;;;;4.72;3.90;;;;;;;23.33;58.89;100653.66;685256;28;1096;-87
2023/09/12 00:19:08;;;;;;;4.87;3.80;;;;;;;23.35;59.10;100651.84;685005;28;1304;-88
2023/09/12 00:19:28;;;;;;;5.22;3.78;;;;;;;23.34;59.00;100650.97;681981;29;1277;-89
2023/09/12 00:19:49;;;;;;;5.65;3.95;;;;;;;23.30;58.98;100648.44;674548;29;1295;-89
2023/09/12 00:20:11;;;;;;;5.53;3.87;;;;;;;23.27;59.20;100647.63;682718;29;1382;-88
2023/09/12 00:20:31;;;;;;;6.40;3.95;;;;;;;23.25;59.21;100638.75;685242;28;1332;-88
2023/09/12 00:20:52;;;;;;;6.20;4.00;;;;;;;23.29;59.36;100644.88;685458;28;1252;-89
2023/09/12 00:21:13;;;;;;;8.35;4.20;;;;;;;23.30;59.09;100651.09;685495;28;1398;-89
2023/09/12 00:21:34;;;;;;;8.00;4.38;;;;;;;23.24;59.21;100636.16;685331;28;1267;-89
2023/09/12 00:21:55;;;;;;;10.25;4.80;;;;;;;23.23;59.31;100640.59;683192;29;815;-89
2023/09/12 00:22:16;;;;;;;8.53;4.67;;;;;;;23.25;59.24;100652.06;677612;29;1221;-89
2023/09/12 00:22:37;;;;;;;7.90;4.40;;;;;;;23.17;59.55;100638.09;682424;28;1198;-89
2023/09/12 00:22:57;;;;;;;5.53;4.00;;;;;;;23.22;59.48;100651.28;688441;28;1276;-89
2023/09/12 00:23:21;;;;;;;5.72;4.38;;;;;;;23.20;59.56;100645.13;687456;28;1130;-89
2023/09/12 00:23:42;;;;;;;6.47;4.63;;;;;;;23.18;59.52;100645.16;684917;28;1220;-89
2023/09/12 00:24:03;;;;;;;7.25;4.63;;;;;;;23.09;59.50;100634.78;690840;28;1240;-89
2023/09/12 00:24:24;;;;;;;6.07;4.25;;;;;;;23.11;59.49;100632.97;690974;28;1005;-89
2023/09/12 00:24:45;;;;;;;5.57;4.05;;;;;;;23.12;59.77;100648.88;690951;28;1060;-89
2023/09/12 00:25:06;;;;;;;5.40;4.00;;;;;;;23.08;59.53;100638.34;687514;28;1047;-89
2023/09/12 00:25:27;;;;;;;7.05;4.30;;;;;;;23.13;60.02;100652.44;680073;29;1371;-88
2023/09/12 00:25:51;;;;;;;7.07;4.37;;;;;;;23.08;59.96;100638.34;685315;28;1326;-87
2023/09/12 00:26:11;;;;;;;6.88;4.15;;;;;;;23.10;59.78;100649.81;690598;28;1021;-89
2023/09/12 00:26:33;;;;;;;9.02;4.32;;;;;;;23.06;60.09;100645.50;690537;28;1197;-88
2023/09/12 00:26:53;;;;;;;8.57;4.40;;;;;;;23.05;59.98;100654.41;685461;28;818;-89
2023/09/12 00:27:14;;;;;;;8.68;4.72;;;;;;;23.07;60.16;100645.50;681865;29;1148;-87
2023/09/12 00:27:35;;;;;;;7.30;4.90;;;;;;;23.04;60.26;100648.22;679881;29;1159;-88
2023/09/12 00:27:56;;;;;;;7.57;5.20;;;;;;;23.05;60.15;100649.09;682512;29;1133;-89
2023/09/12 00:28:17;;;;;;;7.20;5.20;;;;;;;23.03;60.13;100645.63;679500;29;1208;-90
2023/09/12 00:28:38;;;;;;;6.38;5.10;;;;;;;23.03;60.15;100645.63;687890;28;1903;-89
2023/09/12 00:28:59;;;;;;;6.20;4.93;;;;;;;23.01;60.15;100641.19;685684;28;961;-90
2023/09/12 00:29:20;;;;;;;6.60;5.10;;;;;;;23.01;60.29;100635.84;685697;28;1279;-88
2023/09/12 00:29:40;;;;;;;7.28;5.03;;;;;;;23.06;60.20;100646.38;687867;28;1232;-88
2023/09/12 00:30:02;;;;;;;7.70;5.00;;;;;;;23.01;60.24;100633.19;685434;28;1324;-89
2023/09/12 00:30:23;;;;;;;6.43;4.60;;;;;;;23.03;60.30;100624.31;687311;28;1240;-89
2023/09/12 00:30:43;;;;;;;6.07;4.67;;;;;;;23.06;60.45;100640.19;690855;28;1127;-89
2023/09/12 00:31:04;;;;;;;6.60;4.68;;;;;;;23.07;60.25;100640.16;685510;28;1219;-89
2023/09/12 00:31:25;;;;;;;8.25;4.78;;;;;;;22.98;60.37;100622.59;683104;29;1017;-89
2023/09/12 00:31:46;;;;;;;7.93;4.40;;;;;;;23.05;60.69;100633.13;684633;28;1215;-89
2023/09/12 00:32:06;;;;;;;10.10;4.40;;;;;;;23.05;60.56;100633.13;682911;29;1029;-89
2023/09/12 00:32:28;;;;;;;7.90;4.30;;;;;;;23.00;60.39;100625.28;683380;28;1339;-89
2023/09/12 00:32:49;;;;;;;8.45;4.20;;;;;;;23.04;60.62;100629.56;685470;28;1065;-88
2023/09/12 00:33:10;;;;;;;6.82;4.28;;;;;;;23.09;60.51;100641.00;680370;29;1349;-89
2023/09/12 00:33:30;;;;;;;8.00;4.67;;;;;;;22.90;60.91;100629.91;679784;29;1228;-86
2023/09/12 00:33:51;;;;;;;8.57;5.10;;;;;;;22.92;60.98;100633.41;677641;29;1327;-86
2023/09/12 00:34:16;;;;;;;9.05;5.20;;;;;;;22.91;60.91;100633.47;679921;29;1254;-87
2023/09/12 00:34:37;;;;;;;8.55;5.15;;;;;;;22.94;60.80;100636.91;685056;28;1442;-86
2023/09/12 00:34:58;;;;;;;7.70;4.80;;;;;;;22.93;60.82;100632.50;688153;28;1192;-89
2023/09/12 00:35:18;;;;;;;6.63;4.80;;;;;;;22.96;60.66;100645.72;685383;28;1065;-89
2023/09/12 00:35:39;;;;;;;5.82;4.70;;;;;;;22.93;60.72;100639.63;677429;29;1291;-89
2023/09/12 00:36:00;;;;;;;6.40;4.60;;;;;;;22.92;60.80;100632.56;685443;28;1179;-89
2023/09/12 00:36:23;;;;;;;7.45;5.05;;;;;;;22.91;60.89;100641.44;685420;28;1293;-88
2023/09/12 00:36:44;;;;;;;7.47;5.07;;;;;;;22.93;60.93;100640.47;679796;29;1213;-89
2023/09/12 00:37:05;;;;;;;7.28;5.15;;;;;;;22.90;61.00;100634.34;678263;29;1139;-87
2023/09/12 00:37:25;;;;;;;6.50;4.90;;;;;;;22.91;61.18;100636.13;680097;29;1110;-89
2023/09/12 00:37:47;;;;;;;6.53;4.93;;;;;;;22.93;61.15;100640.47;679599;29;1242;-89
2023/09/12 00:38:09;;;;;;;7.77;4.90;;;;;;;22.90;60.78;100632.56;676817;29;1165;-88
2023/09/12 00:38:30;;;;;;;8.38;4.72;;;;;;;22.92;60.96;100638.72;680248;29;1303;-89
2023/09/12 00:38:50;;;;;;;7.47;4.75;;;;;;;22.91;61.20;100631.66;685459;28;1372;-90
2023/09/12 00:39:12;;;;;;;7.30;4.70;;;;;;;22.94;61.22;100642.22;685348;28;1390;-89
2023/09/12 00:39:33;;;;;;;7.40;4.75;;;;;;;22.92;60.97;100638.72;682755;28;986;-89
2023/09/12 00:39:54;;;;;;;7.55;4.65;;;;;;;22.89;61.09;100636.16;680459;29;1392;-89
2023/09/12 00:40:14;;;;;;;7.43;4.70;;;;;;;22.90;61.05;100637.00;688123;28;1339;-89
2023/09/12 00:40:35;;;;;;;7.25;5.00;;;;;;;22.88;61.28;100631.75;682670;28;1256;-88
2023/09/12 00:40:56;;;;;;;6.72;5.20;;;;;;;22.94;61.34;100647.53;677613;28;1205;-87
2023/09/12 00:41:16;;;;;;;5.90;4.90;;;;;;;22.85;61.22;100634.47;682767;28;1195;-89
2023/09/12 00:41:37;;;;;;;6.22;4.55;;;;;;;22.86;61.39;100631.78;687834;28;1253;-88
2023/09/12 00:41:58;;;;;;;6.20;4.40;;;;;;;22.91;61.25;100642.31;685709;28;907;-89
2023/09/12 00:42:19;;;;;;;6.35;4.60;;;;;;;22.93;61.30;100645.78;687544;28;1205;-89
2023/09/12 00:42:40;;;;;;;5.90;5.00;;;;;;;22.87;61.31;100630.88;690485;28;1268;-89
2023/09/12 00:43:01;;;;;;;5.70;4.90;;;;;;;22.93;61.22;100640.47;685346;28;1094;-89
2023/09/12 00:43:22;;;;;;;5.90;4.80;;;;;;;22.88;61.12;100629.94;685576;28;1219;-89
2023/09/12 00:43:42;;;;;;;6.07;4.37;;;;;;;22.87;61.43;100630.00;682811;28;1193;-89
2023/09/12 00:44:04;;;;;;;6.18;4.55;;;;;;;22.90;61.39;100635.25;682239;29;1362;-89
2023/09/12 00:44:24;;;;;;;6.88;4.88;;;;;;;22.88;61.32;100637.06;677826;29;1455;-88
2023/09/12 00:44:45;;;;;;;13.82;5.00;;;;;;;22.90;61.12;100634.34;679937;29;1203;-88
2023/09/12 00:45:06;;;;;;;13.70;4.90;;;;;;;22.91;61.18;100630.81;684183;28;1182;-88
2023/09/12 00:45:27;;;;;;;13.82;4.97;;;;;;;22.96;61.09;100643.06;680176;29;1078;-88
2023/09/12 00:45:48;;;;;;;6.03;4.60;;;;;;;22.86;61.35;100615.81;685040;28;1221;-89
2023/09/12 00:46:08;;;;;;;5.77;4.40;;;;;;;22.90;61.25;100629.91;685223;28;1243;-89
2023/09/12 00:46:31;;;;;;;4.97;4.25;;;;;;;22.90;61.11;100640.56;677364;29;1244;-89
2023/09/12 00:46:54;;;;;;;5.72;4.75;;;;;;;22.88;61.47;100632.59;685352;28;1224;-89
2023/09/12 00:47:15;;;;;;;6.95;5.10;;;;;;;22.84;61.40;100625.63;687345;28;1500;-89
2023/09/12 00:47:36;;;;;;;8.00;5.47;;;;;;;22.88;61.26;100637.94;687902;28;1293;-89
2023/09/12 00:47:59;;;;;;;7.35;5.20;;;;;;;22.86;61.26;100631.78;685375;28;1362;-88
2023/09/12 00:48:25;;;;;;;6.47;4.78;;;;;;;22.80;61.33;100623.09;682732;28;1185;-87
2023/09/12 00:48:48;;;;;;;6.15;4.60;;;;;;;22.81;61.25;100624.84;685125;28;1918;-89
2023/09/12 00:49:10;;;;;;;6.40;4.78;;;;;;;22.83;61.30;100638.97;685521;28;949;-89
2023/09/12 00:49:32;;;;;;;7.07;5.10;;;;;;;22.86;61.52;100647.75;682618;28;1224;-88
2023/09/12 00:49:53;;;;;;;8.00;5.10;;;;;;;22.81;61.58;100638.13;675044;29;1321;-89
2023/09/12 00:50:16;;;;;;;9.32;5.75;;;;;;;22.78;61.57;100628.44;682811;29;1137;-89
2023/09/12 00:50:38;;;;;;;9.48;5.65;;;;;;;22.73;61.56;100628.56;682497;29;1229;-88
2023/09/12 00:50:59;;;;;;;7.85;5.68;;;;;;;22.73;61.69;100631.22;680174;29;1085;-88
2023/09/12 00:51:22;;;;;;;7.20;5.30;;;;;;;22.72;61.70;100632.16;677535;29;1309;-89
2023/09/12 00:51:49;;;;;;;8.07;5.22;;;;;;;22.72;61.79;100626.81;685221;28;1285;-88
2023/09/12 00:52:11;;;;;;;7.38;4.75;;;;;;;22.76;61.78;100632.94;684915;28;1388;-88
2023/09/12 00:52:35;;;;;;;7.47;4.85;;;;;;;22.74;61.63;100632.97;682377;28;1462;-88
2023/09/12 00:52:56;;;;;;;7.50;5.00;;;;;;;22.72;61.73;100632.16;677726;29;792;-89
2023/09/12 00:53:19;;;;;;;7.85;5.60;;;;;;;22.73;61.99;100633.00;680106;29;1198;-89
2023/09/12 00:53:41;;;;;;;7.00;5.60;;;;;;;22.74;61.75;100638.28;684495;28;1206;-89
2023/09/12 00:54:02;;;;;;;7.22;5.78;;;;;;;22.73;61.69;100639.22;685191;28;1076;-89
2023/09/12 00:54:23;;;;;;;7.30;5.60;;;;;;;22.69;61.84;100629.53;676563;29;1253;-90
2023/09/12 00:54:43;;;;;;;6.80;5.50;;;;;;;22.73;61.89;100639.22;676977;29;1689;-89
2023/09/12 00:55:05;;;;;;;6.60;5.63;;;;;;;22.68;61.98;100619.81;682738;28;1049;-89
2023/09/12 00:55:26;;;;;;;6.10;5.40;;;;;;;22.69;61.98;100631.34;682430;28;1234;-88
2023/09/12 00:55:56;;;;;;;6.40;5.40;;;;;;;22.71;61.91;100632.19;684620;28;1192;-89
2023/09/12 00:56:17;;;;;;;7.00;5.30;;;;;;;22.76;62.00;100642.69;680042;29;1387;-89
2023/09/12 00:56:38;;;;;;;7.47;5.57;;;;;;;22.75;62.13;100644.50;682486;29;1206;-89
2023/09/12 00:56:59;;;;;;;6.38;5.30;;;;;;;22.73;62.08;100643.63;682299;29;1496;-89
2023/09/12 00:57:20;;;;;;;7.80;5.10;;;;;;;22.71;62.13;100635.72;680154;29;1174;-89
2023/09/12 00:57:41;;;;;;;8.13;5.10;;;;;;;22.66;61.84;100637.59;677178;29;1576;-89
2023/09/12 00:58:03;;;;;;;8.68;5.85;;;;;;;22.69;61.79;100637.53;680033;29;1333;-88
2023/09/12 00:58:24;;;;;;;8.35;6.28;;;;;;;22.69;61.92;100632.19;680291;29;1241;-89
2023/09/12 00:58:45;;;;;;;8.73;6.38;;;;;;;22.63;61.91;100632.38;682892;29;1324;-89
2023/09/12 00:59:07;;;;;;;8.52;6.15;;;;;;;22.66;61.98;100636.72;682822;29;1169;-88
2023/09/12 00:59:28;;;;;;;9.77;6.95;;;;;;;22.72;62.24;100647.22;685627;28;1302;-88
2023/09/12 00:59:49;;;;;;;9.35;7.47;;;;;;;22.70;62.09;100641.06;682698;29;1352;-89
2023/09/12 01:00:12;;;;;;;8.18;6.93;;;;;;;22.71;62.40;100643.69;678638;29;1336;-88
2023/09/12 01:00:33;;;;;;;6.82;6.13;;;;;;;22.69;62.29;100642.84;682456;29;1588;-89
2023/09/12 01:00:56;;;;;;;7.05;6.35;;;;;;;22.72;62.12;100648.09;688372;28;1213;-89
2023/09/12 01:01:36;;;;;;;7.90;6.10;;;;;;;22.78;62.25;100651.50;685266;28;1284;-88
2023/09/12 01:01:59;;;;;;;8.05;5.78;;;;;;;22.73;62.32;100651.63;685284;28;1306;-89
2023/09/12 01:02:20;;;;;;;8.90;6.30;;;;;;;22.74;62.29;100651.59;682590;29;1369;-89
2023/09/12 01:02:43;;;;;;;8.65;6.20;;;;;;;22.72;62.10;100647.22;682273;29;1111;-89
2023/09/12 01:03:04;;;;;;;9.73;6.50;;;;;;;22.73;62.17;100655.16;679870;29;1615;-89
2023/09/12 01:03:27;;;;;;;8.75;6.55;;;;;;;22.76;62.08;100658.66;677667;29;1264;-89
2023/09/12 01:03:49;;;;;;;9.38;6.70;;;;;;;22.74;62.37;100651.59;677474;29;1408;-89
2023/09/12 01:04:10;;;;;;;14.55;6.53;;;;;;;22.71;62.30;100658.78;679838;29;1216;-90
2023/09/12 01:04:32;;;;;;;14.02;6.50;;;;;;;22.78;62.47;100662.13;679928;29;1376;-88
2023/09/12 01:04:53;;;;;;;14.60;6.57;;;;;;;22.77;62.36;100660.41;685656;28;784;-89
2023/09/12 01:05:14;;;;;;;9.88;6.53;;;;;;;22.75;62.13;100657.81;682518;28;1268;-88
2023/09/12 01:05:35;;;;;;;10.07;6.90;;;;;;;22.73;62.23;100660.50;677569;29;1294;-87
2023/09/12 01:05:58;;;;;;;9.77;7.18;;;;;;;22.70;62.21;100657.88;685548;28;1213;-87
2023/09/12 01:06:23;;;;;;;8.52;6.32;;;;;;;22.73;62.55;100660.50;684750;28;1190;-89
2023/09/12 01:06:44;;;;;;;7.80;6.60;;;;;;;22.79;62.54;100670.09;687289;28;1353;-89
2023/09/12 01:07:05;;;;;;;8.02;6.47;;;;;;;22.84;62.32;100680.63;681909;29;1211;-89
2023/09/12 01:07:26;;;;;;;8.68;6.78;;;;;;;22.86;62.21;100676.13;685322;28;1155;-88
2023/09/12 01:07:47;;;;;;;7.60;6.07;;;;;;;22.87;62.06;100673.44;679907;29;1278;-89
2023/09/12 01:08:08;;;;;;;7.35;6.30;;;;;;;22.85;62.15;100667.28;685267;28;1036;-88
2023/09/12 01:08:30;;;;;;;7.78;6.70;;;;;;;22.91;62.05;100673.38;685384;28;1234;-89
2023/09/12 01:08:51;;;;;;;7.70;6.70;;;;;;;22.87;62.03;100664.59;682665;29;1980;-88
2023/09/12 01:09:12;;;;;;;8.48;7.05;;;;;;;22.93;62.28;100666.22;682215;29;1328;-89
2023/09/12 01:09:34;;;;;;;8.55;6.90;;;;;;;22.99;61.94;100680.25;685078;28;1125;-89
2023/09/12 01:09:55;;;;;;;9.55;7.15;;;;;;;22.89;61.98;100662.75;679526;29;1262;-88
2023/09/12 01:10:16;;;;;;;8.35;6.60;;;;;;;22.92;61.74;100660.00;682507;29;1158;-89
2023/09/12 01:10:37;;;;;;;7.88;6.60;;;;;;;22.97;61.97;100673.19;682404;29;1356;-87
2023/09/12 01:10:58;;;;;;;7.50;6.47;;;;;;;22.97;62.19;100663.44;681946;29;1411;-89
2023/09/12 01:11:20;;;;;;;7.78;6.70;;;;;;;22.97;61.81;100663.44;685191;28;1240;-88
2023/09/12 01:11:41;;;;;;;8.82;6.65;;;;;;;22.98;61.79;100657.19;684319;28;1139;-88
2023/09/12 01:12:02;;;;;;;9.00;6.63;;;;;;;22.95;61.86;100654.63;682519;28;1235;-88
2023/09/12 01:12:23;;;;;;;11.13;6.93;;;;;;;22.96;62.11;100655.47;679978;29;1277;-87
2023/09/12 01:12:44;;;;;;;10.40;7.05;;;;;;;22.91;61.85;100650.28;679336;29;1260;-89
2023/09/12 01:13:05;;;;;;;9.73;6.90;;;;;;;22.98;61.68;100657.19;679921;29;979;-88
2023/09/12 01:13:26;;;;;;;8.75;6.55;;;;;;;22.94;61.75;100650.19;682880;29;1057;-87
2023/09/12 01:13:47;;;;;;;9.00;6.22;;;;;;;22.99;61.73;100661.63;679987;29;1198;-89
2023/09/12 01:14:08;;;;;;;7.63;6.40;;;;;;;22.99;61.96;100660.78;679745;29;1185;-88
2023/09/12 01:14:30;;;;;;;8.82;6.30;;;;;;;22.94;61.76;100652.84;682549;28;1071;-88
2023/09/12 01:14:50;;;;;;;8.25;6.00;;;;;;;22.95;62.01;100659.94;685071;28;1245;-88
2023/09/12 01:15:14;;;;;;;8.03;5.90;;;;;;;22.90;62.06;100650.31;685077;28;1033;-88
2023/09/12 01:15:34;;;;;;;7.32;6.30;;;;;;;22.93;62.05;100661.75;679784;29;1084;-88
2023/09/12 01:15:55;;;;;;;7.57;6.40;;;;;;;22.93;61.94;100661.75;682789;29;1438;-87
2023/09/12 01:16:16;;;;;;;7.47;6.33;;;;;;;22.96;61.82;100660.81;682680;28;983;-86
2023/09/12 01:16:37;;;;;;;7.32;6.13;;;;;;;22.92;62.24;100660.00;682351;29;1068;-88
2023/09/12 01:17:00;;;;;;;8.63;6.65;;;;;;;22.93;61.94;100666.22;682174;28;1261;-85
2023/09/12 01:17:22;;;;;;;8.70;6.88;;;;;;;22.90;61.86;100667.16;685300;28;1172;-87
2023/09/12 01:17:44;;;;;;;8.75;6.82;;;;;;;22.92;62.11;100670.66;687595;28;1324;-89
2023/09/12 01:18:05;;;;;;;9.00;7.20;;;;;;;22.97;62.02;100673.19;682504;29;1233;-87
2023/09/12 01:18:26;;;;;;;9.52;7.10;;;;;;;22.91;62.07;100668.06;682601;29;1386;-88
2023/09/12 01:18:46;;;;;;;10.00;6.95;;;;;;;22.94;61.78;100670.63;682598;29;1318;-88
2023/09/12 01:19:09;;;;;;;9.68;6.40;;;;;;;22.92;62.07;100672.47;682594;28;978;-85
2023/09/12 01:19:30;;;;;;;9.40;6.50;;;;;;;22.94;62.14;100678.59;679775;29;1142;-86
2023/09/12 01:19:51;;;;;;;8.77;6.50;;;;;;;22.91;62.07;100676.88;677448;29;889;-89
2023/09/12 01:20:17;;;;;;;8.45;6.57;;;;;;;22.96;61.97;100680.31;684432;28;1280;-88
2023/09/12 01:20:51;;;;;;;8.65;6.68;;;;;;;22.96;61.67;100684.75;684231;28;1210;-87
2023/09/12 01:21:18;;;;;;;10.20;7.20;;;;;;;23.04;61.77;100703.25;685022;28;1205;-89
2023/09/12 01:22:06;;;;;;;11.20;7.30;;;;;;;22.99;62.20;100714.84;687735;28;1185;-87
2023/09/12 01:23:04;;;;;;;8.85;6.93;;;;;;;23.01;62.29;100722.81;684953;28;1274;-85
2023/09/12 01:23:56;;;;;;;9.00;7.03;;;;;;;23.04;62.08;100728.03;684004;28;951;-86
2023/09/12 01:24:35;;;;;;;8.27;7.05;;;;;;;23.04;61.87;100735.16;685470;28;1122;-85
2023/09/12 01:25:14;;;;;;;8.33;6.90;;;;;;;23.01;62.03;100736.13;685491;28;1288;-87
2023/09/12 01:25:53;;;;;;;9.60;7.30;;;;;;;23.00;62.22;100748.53;679702;29;1225;-86
2023/09/12 01:26:40;;;;;;;9.45;6.80;;;;;;;22.91;62.24;100753.19;679208;29;1971;-87
2023/09/12 01:27:26;;;;;;;9.18;6.78;;;;;;;23.02;62.15;100769.78;682186;29;1066;-85
2023/09/12 01:27:50;;;;;;;9.40;6.80;;;;;;;22.93;62.16;100773.50;685045;28;918;-85
2023/09/12 01:28:13;;;;;;;8.95;6.57;;;;;;;22.87;61.98;100760.38;683246;28;1258;-85
2023/09/12 01:28:38;;;;;;;8.60;6.82;;;;;;;22.86;62.06;100766.56;687726;28;1348;-84
2023/09/12 01:28:59;;;;;;;8.82;7.00;;;;;;;22.90;62.22;100768.28;680017;29;1911;-86
2023/09/12 01:29:22;;;;;;;8.48;6.93;;;;;;;22.90;62.19;100770.94;687618;28;1249;-86
2023/09/12 01:29:46;;;;;;;7.95;6.75;;;;;;;22.97;62.18;100775.19;685126;28;1097;-86
2023/09/12 01:30:09;;;;;;;7.50;6.30;;;;;;;22.99;62.07;100781.38;687700;28;1244;-88
2023/09/12 01:30:32;;;;;;;7.88;6.40;;;;;;;22.92;62.10;100766.44;682364;28;1183;-85
2023/09/12 01:30:55;;;;;;;7.70;6.80;;;;;;;22.94;61.91;100775.25;687756;28;1340;-85
2023/09/12 01:31:17;;;;;;;11.00;7.35;;;;;;;22.98;62.12;100766.28;685162;28;1253;-85
2023/09/12 01:31:39;;;;;;;11.52;7.60;;;;;;;22.96;62.10;100760.16;681492;29;1133;-84
2023/09/12 01:32:02;;;;;;;14.55;8.20;;;;;;;22.94;62.24;100759.28;682693;29;1234;-87
2023/09/12 01:32:23;;;;;;;11.05;7.78;;;;;;;22.99;62.27;100765.41;680116;29;1252;-86
2023/09/12 01:32:44;;;;;;;10.77;7.72;;;;;;;22.88;62.51;100748.81;690343;28;1328;-83
2023/09/12 01:33:06;;;;;;;9.18;7.40;;;;;;;22.94;62.48;100743.31;690215;28;1125;-88
2023/09/12 01:33:27;;;;;;;9.77;7.90;;;;;;;22.99;62.38;100741.47;679780;29;1204;-83
2023/09/12 01:33:48;;;;;;;9.20;7.78;;;;;;;22.95;62.14;100730.91;682714;29;1587;-87
2023/09/12 01:34:10;;;;;;;9.07;8.07;;;;;;;23.01;62.14;100736.97;688783;28;1359;-86
2023/09/12 01:34:31;;;;;;;9.20;8.30;;;;;;;23.02;62.14;100729.88;685070;28;1270;-85
2023/09/12 01:34:52;;;;;;;9.10;8.18;;;;;;;23.04;62.18;100736.03;682611;29;1228;-82
2023/09/12 01:35:13;;;;;;;9.40;8.40;;;;;;;23.03;62.16;100736.09;677658;29;1246;-85
2023/09/12 01:35:34;;;;;;;10.00;8.53;;;;;;;23.01;62.14;100726.31;673859;29;1171;-88
2023/09/12 01:35:54;;;;;;;10.50;8.57;;;;;;;23.02;61.83;100716.56;677120;29;1180;-87
2023/09/12 01:36:15;;;;;;;13.70;8.40;;;;;;;23.11;62.09;100734.09;681516;29;1433;-86
2023/09/12 01:36:37;;;;;;;14.70;8.63;;;;;;;23.08;61.90;100712.88;682418;29;1167;-88
2023/09/12 01:36:58;;;;;;;13.00;9.48;;;;;;;23.12;62.02;100715.41;687595;28;724;-86
2023/09/12 01:37:19;;;;;;;13.10;9.83;;;;;;;23.12;61.89;100703.91;682534;28;1211;-87
2023/09/12 01:37:39;;;;;;;12.05;9.85;;;;;;;23.14;61.75;100702.06;690268;28;1184;-87
2023/09/12 01:38:00;;;;;;;10.98;9.13;;;;;;;23.16;61.74;100697.59;687987;28;898;-86
2023/09/12 01:38:22;;;;;;;10.85;9.50;;;;;;;23.13;61.80;100685.22;685179;28;1197;-87
2023/09/12 01:38:43;;;;;;;10.60;9.00;;;;;;;23.17;61.69;100683.34;682535;29;1384;-88
2023/09/12 01:39:04;;;;;;;11.82;9.40;;;;;;;23.16;61.42;100673.63;687523;28;1256;-88
2023/09/12 01:39:25;;;;;;;11.55;9.15;;;;;;;23.16;61.49;100665.63;684925;28;1303;-88
2023/09/12 01:39:46;;;;;;;12.30;9.30;;;;;;;23.19;61.66;100667.34;680023;29;1146;-87
2023/09/12 01:40:08;;;;;;;14.07;8.82;;;;;;;23.25;61.70;100673.38;686893;28;1383;-88
2023/09/12 01:40:39;;;;;;;19.38;9.02;;;;;;;23.26;61.51;100674.25;688052;28;1347;-89
2023/09/12 01:41:01;;;;;;;14.73;8.02;;;;;;;23.25;61.46;100672.53;674801;29;1234;-88
2023/09/12 01:41:21;;;;;;;9.45;7.60;;;;;;;23.19;61.64;100657.59;682681;28;1227;-89
2023/09/12 01:41:45;;;;;;;9.77;7.90;;;;;;;23.30;61.49;100670.59;684793;28;1522;-88
2023/09/12 01:42:11;;;;;;;10.35;8.52;;;;;;;23.20;61.71;100654.00;679934;29;1493;-89
2023/09/12 01:42:38;;;;;;;10.45;8.50;;;;;;;23.23;61.39;100664.56;685009;28;1197;-88
2023/09/12 01:43:00;;;;;;;11.98;9.00;;;;;;;23.25;61.41;100664.53;688098;28;1041;-88
2023/09/12 01:43:24;;;;;;;12.20;9.18;;;;;;;23.28;61.42;100672.44;690622;28;1089;-90
2023/09/12 01:43:45;;;;;;;12.02;9.05;;;;;;;23.23;61.47;100664.56;687917;28;1104;-89
2023/09/12 01:44:08;;;;;;;10.77;9.18;;;;;;;23.23;61.58;100663.72;682680;28;1438;-88
2023/09/12 01:44:32;;;;;;;10.57;8.98;;;;;;;23.18;61.59;100661.13;682331;29;1245;-89
2023/09/12 01:44:56;;;;;;;9.75;8.75;;;;;;;23.26;61.31;100668.94;690733;28;1290;-88
2023/09/12 01:45:18;;;;;;;9.40;8.40;;;;;;;23.24;61.48;100671.63;687746;28;1312;-88
2023/09/12 01:45:39;;;;;;;10.00;8.50;;;;;;;23.23;61.56;100663.72;679596;29;1325;-87
2023/09/12 01:46:01;;;;;;;10.90;8.65;;;;;;;23.13;61.51;100645.28;685371;28;1056;-86
2023/09/12 01:46:24;;;;;;;12.20;9.30;;;;;;;23.24;61.51;100660.97;685391;28;909;-88